createdAt,value
2022-09-12T00:01:58.532Z,4.70
2022-09-12T00:04:01.893Z,5.45
2022-09-12T00:06:23.790Z,4.90
2022-09-12T00:08:25.744Z,4.50
2022-09-12T00:10:27.458Z,5.10
2022-09-12T00:12:29.037Z,4.90
2022-09-12T00:14:30.798Z,5.13
2022-09-12T00:16:34.216Z,5.05
2022-09-12T00:18:35.903Z,4.97
2022-09-12T00:20:41.554Z,5.15
2022-09-12T00:22:43.076Z,5.18
2022-09-12T00:24:44.919Z,4.90
2022-09-12T00:26:46.819Z,4.47
2022-09-12T00:28:48.949Z,5.22
2022-09-12T00:30:50.689Z,4.73
2022-09-12T00:32:54.655Z,4.70
2022-09-12T00:34:56.183Z,5.30
2022-09-12T00:36:57.771Z,5.30
2022-09-12T00:38:59.686Z,5.07
2022-09-12T00:41:01.215Z,5.35
2022-09-12T00:43:02.889Z,5.03
2022-09-12T00:45:05.150Z,4.72
2022-09-12T00:47:06.642Z,4.80
2022-09-12T00:49:16.033Z,4.55
2022-09-12T00:51:19.088Z,4.65
2022-09-12T00:53:20.830Z,5.43
2022-09-12T00:55:24.543Z,4.90
2022-09-12T00:57:29.336Z,4.30
2022-09-12T00:59:35.111Z,4.13
2022-09-12T01:01:37.158Z,4.50
2022-09-12T01:03:39.019Z,4.53
2022-09-12T01:05:44.390Z,5.40
2022-09-12T01:07:48.584Z,4.30
2022-09-12T01:09:50.676Z,4.93
2022-09-12T01:11:53.257Z,4.03
2022-09-12T01:13:55.087Z,5.13
2022-09-12T01:15:56.954Z,5.13
2022-09-12T01:17:58.504Z,5.18
2022-09-12T01:20:09.303Z,5.28
2022-09-12T01:22:14.169Z,4.65
2022-09-12T01:24:25.257Z,4.78
2022-09-12T01:26:44.038Z,4.82
2022-09-12T01:29:00.854Z,4.65
2022-09-12T01:31:31.714Z,4.35
2022-09-12T01:33:42.936Z,4.13
2022-09-12T01:35:49.106Z,4.60
2022-09-12T01:37:58.609Z,4.95
2022-09-12T01:40:14.186Z,4.22
2022-09-12T01:42:27.044Z,4.30
2022-09-12T01:44:28.517Z,4.03
2022-09-12T01:46:33.858Z,4.47
2022-09-12T01:48:38.251Z,5.13
2022-09-12T01:50:50.801Z,4.50
2022-09-12T01:52:54.622Z,5.10
2022-09-12T01:54:59.239Z,4.78
2022-09-12T01:57:03.988Z,4.75
2022-09-12T01:59:08.907Z,4.78
2022-09-12T02:01:16.664Z,4.80
2022-09-12T02:03:20.658Z,4.63
2022-09-12T02:05:29.409Z,5.25
2022-09-12T02:07:35.768Z,4.28
2022-09-12T02:09:49.068Z,4.03
2022-09-12T02:14:03.529Z,4.72
2022-09-12T02:16:15.976Z,4.80
2022-09-12T02:18:18.508Z,4.75
2022-09-12T02:20:46.842Z,5.57
2022-09-12T02:22:48.594Z,5.28
2022-09-12T02:24:52.615Z,4.65
2022-09-12T02:26:57.592Z,4.72
2022-09-12T02:29:00.018Z,5.22
2022-09-12T02:31:14.263Z,5.25
2022-09-12T02:33:26.693Z,6.05
2022-09-12T02:35:33.908Z,5.45
2022-09-12T02:37:41.440Z,5.70
2022-09-12T02:39:45.359Z,6.05
2022-09-12T02:41:48.207Z,6.35
2022-09-12T02:43:50.415Z,5.95
2022-09-12T02:45:52.250Z,5.75
2022-09-12T02:47:58.280Z,5.95
2022-09-12T02:50:00.238Z,5.15
2022-09-12T02:52:02.609Z,5.03
2022-09-12T02:54:06.523Z,4.83
2022-09-12T02:56:11.066Z,5.25
2022-09-12T02:58:14.711Z,5.15
2022-09-12T03:00:16.463Z,4.93
2022-09-12T03:02:25.779Z,4.97
2022-09-12T03:04:30.907Z,4.20
2022-09-12T03:06:44.844Z,4.80
2022-09-12T03:09:05.011Z,5.05
2022-09-12T03:11:18.286Z,4.70
2022-09-12T03:13:38.855Z,5.38
2022-09-12T03:15:49.223Z,4.85
2022-09-12T03:18:06.147Z,5.50
2022-09-12T03:20:13.554Z,5.45
2022-09-12T03:22:24.373Z,5.47
2022-09-12T03:24:30.071Z,5.45
2022-09-12T03:26:49.373Z,5.65
2022-09-12T03:28:52.038Z,5.13
2022-09-12T03:30:55.842Z,6.00
2022-09-12T03:32:57.476Z,5.90
2022-09-12T03:34:59.021Z,5.65
2022-09-12T03:37:00.953Z,5.80
2022-09-12T03:39:02.516Z,5.97
2022-09-12T03:41:04.035Z,5.82
2022-09-12T03:43:07.890Z,6.38
2022-09-12T03:45:09.727Z,6.32
2022-09-12T03:47:11.642Z,6.57
2022-09-12T03:49:13.434Z,5.97
2022-09-12T03:51:15.030Z,6.82
2022-09-12T03:53:17.474Z,6.82
2022-09-12T03:55:19.376Z,7.50
2022-09-12T03:57:21.087Z,6.25
2022-09-12T03:59:22.694Z,7.18
2022-09-12T04:01:24.536Z,7.20
2022-09-12T04:03:26.174Z,6.75
2022-09-12T04:05:27.777Z,8.13
2022-09-12T04:07:29.818Z,7.10
2022-09-12T04:09:31.444Z,7.80
2022-09-12T04:11:33.019Z,7.93
2022-09-12T04:13:35.310Z,6.95
2022-09-12T04:15:38.575Z,7.35
2022-09-12T04:17:40.104Z,7.00
2022-09-12T04:19:41.862Z,7.53
2022-09-12T04:21:43.627Z,7.20
2022-09-12T04:23:45.627Z,7.43
2022-09-12T04:25:57.519Z,7.25
2022-09-12T04:27:59.076Z,8.07
2022-09-12T04:30:02.129Z,7.15
2022-09-12T04:32:04.657Z,7.55
2022-09-12T04:34:06.407Z,6.90
2022-09-12T04:36:09.663Z,8.35
2022-09-12T04:38:11.714Z,7.40
2022-09-12T04:40:13.354Z,8.27
2022-09-12T04:42:15.463Z,7.72
2022-09-12T04:44:17.453Z,8.25
2022-09-12T04:46:22.291Z,7.93
2022-09-12T04:48:23.859Z,7.97
2022-09-12T04:50:26.614Z,8.07
2022-09-12T04:52:28.447Z,7.45
2022-09-12T04:54:30.344Z,7.75
2022-09-12T04:56:32.536Z,7.97
2022-09-12T04:58:34.497Z,8.85
2022-09-12T05:00:36.000Z,7.68
2022-09-12T05:02:38.217Z,7.95
2022-09-12T05:04:39.756Z,7.43
2022-09-12T05:06:41.717Z,7.88
2022-09-12T05:08:43.940Z,8.48
2022-09-12T05:10:45.502Z,8.20
2022-09-12T05:12:47.268Z,8.00
2022-09-12T05:14:49.041Z,8.02
2022-09-12T05:16:51.040Z,8.30
2022-09-12T05:18:52.802Z,8.77
2022-09-12T05:20:55.074Z,8.27
2022-09-12T05:22:56.762Z,8.37
2022-09-12T05:24:58.330Z,9.30
2022-09-12T05:27:00.095Z,9.18
2022-09-12T05:29:03.853Z,8.98
2022-09-12T05:31:06.653Z,8.68
2022-09-12T05:33:08.606Z,9.27
2022-09-12T05:35:11.117Z,14.48
2022-09-12T05:37:13.039Z,8.77
2022-09-12T05:39:14.899Z,9.07
2022-09-12T05:41:24.663Z,8.68
2022-09-12T05:43:26.638Z,8.77
2022-09-12T05:45:29.673Z,8.60
2022-09-12T05:47:31.246Z,9.75
2022-09-12T05:49:32.831Z,8.52
2022-09-12T05:51:35.815Z,8.20
2022-09-12T05:53:38.454Z,9.15
2022-09-12T05:55:41.892Z,8.50
2022-09-12T05:57:46.026Z,9.35
2022-09-12T05:59:48.771Z,7.95
2022-09-12T06:01:50.421Z,8.48
2022-09-12T06:03:54.282Z,8.32
2022-09-12T06:05:55.971Z,8.32
2022-09-12T06:07:57.610Z,8.48
2022-09-12T06:09:59.387Z,8.48
2022-09-12T06:12:00.898Z,7.97
2022-09-12T06:14:02.678Z,8.30
2022-09-12T06:16:05.375Z,15.20
2022-09-12T06:18:06.908Z,9.52
2022-09-12T06:20:08.603Z,8.20
2022-09-12T06:22:10.993Z,8.18
2022-09-12T06:24:12.722Z,8.55
2022-09-12T06:26:16.084Z,9.32
2022-09-12T06:28:18.035Z,8.63
2022-09-12T06:30:22.328Z,9.18
2022-09-12T06:32:29.737Z,8.63
2022-09-12T06:34:31.614Z,8.52
2022-09-12T06:36:34.406Z,8.30
2022-09-12T06:40:42.673Z,7.97
2022-09-12T06:42:44.282Z,7.97
2022-09-12T06:44:45.792Z,8.25
2022-09-12T06:46:47.833Z,15.38
2022-09-12T06:48:50.157Z,7.60
2022-09-12T06:50:55.540Z,8.30
2022-09-12T06:52:57.303Z,7.95
2022-09-12T06:54:59.717Z,7.70
2022-09-12T06:57:01.274Z,8.48
2022-09-12T06:59:03.176Z,8.20
2022-09-12T07:01:06.343Z,8.00
2022-09-12T07:03:08.316Z,8.38
2022-09-12T07:05:11.079Z,7.57
2022-09-12T07:07:12.688Z,49.08
2022-09-12T07:09:17.662Z,8.60
2022-09-12T07:11:20.689Z,8.18
2022-09-12T07:13:22.508Z,7.82
2022-09-12T07:15:24.047Z,7.15
2022-09-12T07:17:25.877Z,7.75
2022-09-12T07:19:27.489Z,7.75
2022-09-12T07:21:29.447Z,7.97
2022-09-12T07:23:31.531Z,8.05
2022-09-12T07:25:33.124Z,7.63
2022-09-12T07:27:34.774Z,7.72
2022-09-12T07:29:37.862Z,7.75
2022-09-12T07:31:40.184Z,8.45
2022-09-12T07:33:42.545Z,8.07
2022-09-12T07:35:44.275Z,8.10
2022-09-12T07:37:45.807Z,7.28
2022-09-12T07:39:47.448Z,7.40
2022-09-12T07:41:49.267Z,7.47
2022-09-12T07:43:54.754Z,7.18
2022-09-12T07:45:57.193Z,7.50
2022-09-12T07:47:58.973Z,7.05
2022-09-12T07:50:00.601Z,7.25
2022-09-12T07:52:02.455Z,7.32
2022-09-12T07:54:09.277Z,7.35
2022-09-12T07:56:12.448Z,7.10
2022-09-12T07:58:13.982Z,7.30
2022-09-12T08:00:15.930Z,7.35
2022-09-12T08:02:17.925Z,6.60
2022-09-12T08:04:19.653Z,7.20
2022-09-12T08:06:25.791Z,7.03
2022-09-12T08:08:27.324Z,6.75
2022-09-12T08:10:28.866Z,6.35
2022-09-12T08:12:32.228Z,5.82
2022-09-12T08:14:33.800Z,6.70
2022-09-12T08:16:35.741Z,6.60
2022-09-12T08:18:38.030Z,6.27
2022-09-12T08:20:39.582Z,6.53
2022-09-12T08:22:41.135Z,6.45
2022-09-12T08:24:43.927Z,6.70
2022-09-12T08:26:46.120Z,6.47
2022-09-12T08:28:47.926Z,6.88
2022-09-12T08:30:50.114Z,6.97
2022-09-12T08:32:51.718Z,6.60
2022-09-12T08:34:53.277Z,6.90
2022-09-12T08:36:55.122Z,6.50
2022-09-12T08:39:00.957Z,12.68
2022-09-12T08:41:22.855Z,7.78
2022-09-12T08:43:24.564Z,6.65
2022-09-12T08:45:34.375Z,6.05
2022-09-12T08:47:38.505Z,7.18
2022-09-12T08:49:58.654Z,6.60
2022-09-12T08:52:04.687Z,6.93
2022-09-12T08:54:16.124Z,6.50
2022-09-12T08:56:17.895Z,6.95
2022-09-12T08:58:20.817Z,6.82
2022-09-12T09:00:22.632Z,6.10
2022-09-12T09:02:37.075Z,6.40
2022-09-12T09:04:38.987Z,6.43
2022-09-12T09:06:49.532Z,6.00
2022-09-12T09:08:51.250Z,6.25
2022-09-12T09:11:03.229Z,6.45
2022-09-12T09:13:14.323Z,6.85
2022-09-12T09:15:40.985Z,6.53
2022-09-12T09:17:46.221Z,7.07
2022-09-12T09:19:51.379Z,6.65
2022-09-12T09:21:56.208Z,6.43
2022-09-12T09:24:02.670Z,6.05
2022-09-12T09:26:04.180Z,6.53
2022-09-12T09:28:11.408Z,5.88
2022-09-12T09:30:15.475Z,6.13
2022-09-12T09:32:25.582Z,5.80
2022-09-12T09:34:31.541Z,6.40
2022-09-12T09:36:51.714Z,6.20
2022-09-12T09:38:56.071Z,6.55
2022-09-12T09:41:01.400Z,5.85
2022-09-12T09:43:06.264Z,5.80
2022-09-12T09:45:16.286Z,5.95
2022-09-12T09:47:18.210Z,5.30
2022-09-12T09:49:19.907Z,5.97
2022-09-12T09:51:25.178Z,5.93
2022-09-12T09:53:46.160Z,5.80
2022-09-12T09:55:48.882Z,6.03
2022-09-12T09:57:52.434Z,5.53
2022-09-12T09:59:54.366Z,5.35
2022-09-12T10:01:57.666Z,5.05
2022-09-12T10:03:59.327Z,5.50
2022-09-12T10:06:02.704Z,5.18
2022-09-12T10:08:06.658Z,5.43
2022-09-12T10:10:16.247Z,5.57
2022-09-12T10:12:26.190Z,4.97
2022-09-12T10:14:38.677Z,5.63
2022-09-12T10:16:52.609Z,5.13
2022-09-12T10:18:58.403Z,5.10
2022-09-12T10:21:01.710Z,5.22
2022-09-12T10:23:26.864Z,5.70
2022-09-12T10:25:28.803Z,5.30
2022-09-12T10:27:31.789Z,5.70
2022-09-12T10:31:55.358Z,5.63
2022-09-12T10:34:00.822Z,5.68
2022-09-12T10:36:02.677Z,5.57
2022-09-12T10:38:11.520Z,6.30
2022-09-12T10:40:24.316Z,6.50
2022-09-12T10:42:44.627Z,5.57
2022-09-12T10:44:52.533Z,6.00
2022-09-12T10:46:54.529Z,5.57
2022-09-12T10:49:21.410Z,6.05
2022-09-12T10:51:26.019Z,6.28
2022-09-12T10:53:35.349Z,5.72
2022-09-12T10:55:37.295Z,5.78
2022-09-12T10:57:47.734Z,5.82
2022-09-12T11:00:15.606Z,5.82
2022-09-12T11:02:30.612Z,5.57
2022-09-12T11:04:44.696Z,5.75
2022-09-12T11:06:49.343Z,5.68
2022-09-12T11:09:05.918Z,6.47
2022-09-12T11:11:16.092Z,6.28
2022-09-12T11:13:29.496Z,6.03
2022-09-12T11:15:36.930Z,6.10
2022-09-12T11:17:38.669Z,6.53
2022-09-12T11:19:59.569Z,6.15
2022-09-12T11:22:07.112Z,6.40
2022-09-12T11:24:27.407Z,6.30
2022-09-12T11:26:42.202Z,5.90
2022-09-12T11:28:47.157Z,5.85
2022-09-12T11:30:55.459Z,6.07
2022-09-12T11:33:05.794Z,5.95
2022-09-12T11:35:07.683Z,5.50
2022-09-12T11:37:20.329Z,5.13
2022-09-12T11:39:23.640Z,5.10
2022-09-12T11:41:29.450Z,5.70
2022-09-12T11:43:31.242Z,5.30
2022-09-12T11:45:37.161Z,5.30
2022-09-12T11:47:39.580Z,4.93
2022-09-12T11:49:44.256Z,5.18
2022-09-12T11:51:45.806Z,5.13
2022-09-12T11:53:57.267Z,5.20
2022-09-12T11:56:09.419Z,4.80
2022-09-12T11:58:11.533Z,5.50
2022-09-12T12:00:18.426Z,5.43
2022-09-12T12:02:27.984Z,5.70
2022-09-12T12:04:37.017Z,4.88
2022-09-12T12:06:52.584Z,5.15
2022-09-12T12:08:54.461Z,5.05
2022-09-12T12:10:58.078Z,5.05
2022-09-12T12:13:01.958Z,4.97
2022-09-12T12:15:04.111Z,5.55
2022-09-12T12:17:12.402Z,5.72
2022-09-12T12:19:13.908Z,5.65
2022-09-12T12:21:21.947Z,5.53
2022-09-12T12:23:25.432Z,5.18
2022-09-12T12:25:38.853Z,5.32
2022-09-12T12:27:59.185Z,5.18
2022-09-12T12:30:00.763Z,5.05
2022-09-12T12:32:02.259Z,5.25
2022-09-12T12:34:24.396Z,4.70
2022-09-12T12:36:34.708Z,5.05
2022-09-12T12:38:37.274Z,4.97
2022-09-12T12:42:40.616Z,5.10
2022-09-12T12:44:45.515Z,4.90
2022-09-12T12:47:07.276Z,4.63
2022-09-12T12:49:09.481Z,5.13
2022-09-12T12:51:37.962Z,5.20
2022-09-12T12:53:41.281Z,4.78
2022-09-12T12:55:42.842Z,4.55
2022-09-12T12:57:49.890Z,4.50
2022-09-12T13:00:02.548Z,4.38
2022-09-12T13:02:04.755Z,5.63
2022-09-12T13:04:17.563Z,5.22
2022-09-12T13:06:33.999Z,5.00
2022-09-12T13:08:55.284Z,5.22
2022-09-12T13:11:08.774Z,4.10
2022-09-12T13:13:20.452Z,4.88
2022-09-12T13:15:46.072Z,4.35
2022-09-12T13:17:47.626Z,5.95
2022-09-12T13:20:00.772Z,5.25
2022-09-12T13:22:11.634Z,4.82
2022-09-12T13:24:18.788Z,5.05
2022-09-12T13:26:25.544Z,4.53
2022-09-12T13:28:27.796Z,4.80
2022-09-12T13:30:31.668Z,4.55
2022-09-12T13:32:33.988Z,4.40
2022-09-12T13:34:41.309Z,5.13
2022-09-12T13:36:51.858Z,4.95
2022-09-12T13:39:17.302Z,5.00
2022-09-12T13:41:18.810Z,4.47
2022-09-12T13:43:35.944Z,3.63
2022-09-12T13:45:39.363Z,4.05
2022-09-12T13:47:40.959Z,4.53
2022-09-12T13:49:43.051Z,4.47
2022-09-12T13:51:44.928Z,4.43
2022-09-12T13:53:47.414Z,5.15
2022-09-12T13:55:51.971Z,4.20
2022-09-12T13:58:17.038Z,4.40
2022-09-12T14:00:22.371Z,4.00
2022-09-12T14:02:26.128Z,4.47
2022-09-12T14:04:48.498Z,4.50
2022-09-12T14:06:51.653Z,7.00
2022-09-12T14:08:56.177Z,4.10
2022-09-12T14:10:58.351Z,4.43
2022-09-12T14:13:00.932Z,4.13
2022-09-12T14:15:02.670Z,3.88
2022-09-12T14:17:23.038Z,4.10
2022-09-12T14:19:26.038Z,3.97
2022-09-12T14:21:34.098Z,4.22
2022-09-12T14:23:41.111Z,3.80
2022-09-12T14:25:46.041Z,4.00
2022-09-12T14:27:51.067Z,4.20
2022-09-12T14:29:55.242Z,3.60
2022-09-12T14:32:01.480Z,4.38
2022-09-12T14:34:14.838Z,3.97
2022-09-12T14:36:16.594Z,4.22
2022-09-12T14:38:34.197Z,3.90
2022-09-12T14:40:40.997Z,4.35
2022-09-12T14:42:42.966Z,4.25
2022-09-12T14:44:52.426Z,4.13
2022-09-12T14:46:54.018Z,4.30
2022-09-12T14:49:28.904Z,4.28
2022-09-12T14:51:35.109Z,4.45
2022-09-12T14:53:37.556Z,4.13
2022-09-12T14:55:44.342Z,4.07
2022-09-12T14:57:46.030Z,4.25
2022-09-12T14:59:47.743Z,5.03
2022-09-12T15:01:49.582Z,8.32
2022-09-12T15:03:53.354Z,4.57
2022-09-12T15:05:55.928Z,4.30
2022-09-12T15:07:59.007Z,4.25
2022-09-12T15:12:02.167Z,4.68
2022-09-12T15:14:12.368Z,4.93
2022-09-12T15:16:14.440Z,5.25
2022-09-12T15:18:16.776Z,5.53
2022-09-12T15:20:18.787Z,5.55
2022-09-12T15:22:21.586Z,5.05
2022-09-12T15:24:23.114Z,5.70
2022-09-12T15:26:27.510Z,5.95
2022-09-12T15:28:30.001Z,5.38
2022-09-12T15:30:31.779Z,5.78
2022-09-12T15:32:33.943Z,6.40
2022-09-12T15:34:35.525Z,5.97
2022-09-12T15:36:37.311Z,5.53
2022-09-12T15:38:39.023Z,5.97
2022-09-12T15:40:40.661Z,6.45
2022-09-12T15:42:42.606Z,5.90
2022-09-12T15:44:44.802Z,6.20
2022-09-12T15:46:46.722Z,5.63
2022-09-12T15:48:48.392Z,8.20
2022-09-12T15:50:50.143Z,7.13
2022-09-12T15:52:52.099Z,7.35
2022-09-12T15:54:53.611Z,7.55
2022-09-12T15:56:55.400Z,7.07
2022-09-12T15:58:59.589Z,7.00
2022-09-12T16:01:02.411Z,7.13
2022-09-12T16:03:04.311Z,7.82
2022-09-12T16:05:06.123Z,7.55
2022-09-12T16:07:07.781Z,7.97
2022-09-12T16:09:12.612Z,7.50
2022-09-12T16:11:17.706Z,7.40
2022-09-12T16:13:19.364Z,8.77
2022-09-12T16:15:22.536Z,8.13
2022-09-12T16:19:25.849Z,7.60
2022-09-12T16:21:27.691Z,8.53
2022-09-12T16:23:29.183Z,8.43
2022-09-12T16:25:31.075Z,8.20
2022-09-12T16:27:32.984Z,8.32
2022-09-12T16:29:34.578Z,7.60
2022-09-12T16:31:38.369Z,8.30
2022-09-12T16:33:40.308Z,8.10
2022-09-12T16:35:42.106Z,8.15
2022-09-12T16:37:43.711Z,8.55
2022-09-12T16:39:45.533Z,8.68
2022-09-12T16:41:47.119Z,8.90
2022-09-12T16:43:48.768Z,8.95
2022-09-12T16:45:50.554Z,8.75
2022-09-12T16:47:52.068Z,8.30
2022-09-12T16:49:53.637Z,8.98
2022-09-12T16:51:55.364Z,8.38
2022-09-12T16:53:57.124Z,8.55
2022-09-12T16:55:58.866Z,8.48
2022-09-12T16:58:00.579Z,8.10
2022-09-12T17:00:02.283Z,8.52
2022-09-12T17:02:04.163Z,8.15
2022-09-12T17:04:06.676Z,7.83
2022-09-12T17:06:11.227Z,8.40
2022-09-12T17:08:12.767Z,8.10
2022-09-12T17:10:14.579Z,9.82
2022-09-12T17:12:16.139Z,8.82
2022-09-12T17:14:17.886Z,9.10
2022-09-12T17:16:20.006Z,8.52
2022-09-12T17:18:21.684Z,8.35
2022-09-12T17:20:23.410Z,8.32
2022-09-12T17:22:25.141Z,7.90
2022-09-12T17:24:26.757Z,14.45
2022-09-12T17:26:28.360Z,7.93
2022-09-12T17:28:30.170Z,8.00
2022-09-12T17:30:35.370Z,8.52
2022-09-12T17:32:36.924Z,9.05
2022-09-12T17:34:39.524Z,8.52
2022-09-12T17:36:44.161Z,8.70
2022-09-12T17:38:46.302Z,9.13
2022-09-12T17:40:59.050Z,8.68
2022-09-12T17:43:01.987Z,8.77
2022-09-12T17:45:04.510Z,8.70
2022-09-12T17:47:06.654Z,9.10
2022-09-12T17:49:10.679Z,8.25
2022-09-12T17:51:15.277Z,8.52
2022-09-12T17:53:17.588Z,9.25
2022-09-12T17:55:19.160Z,8.00
2022-09-12T17:57:20.719Z,9.38
2022-09-12T17:59:24.310Z,8.82
2022-09-12T18:01:49.840Z,8.60
2022-09-12T18:03:58.748Z,7.80
2022-09-12T18:06:00.942Z,8.07
2022-09-12T18:08:02.554Z,8.45
2022-09-12T18:10:04.259Z,8.43
2022-09-12T18:12:06.217Z,8.63
2022-09-12T18:14:10.407Z,9.85
2022-09-12T18:16:14.642Z,8.60
2022-09-12T18:18:16.401Z,9.65
2022-09-12T18:20:17.903Z,9.02
2022-09-12T18:22:19.488Z,10.15
2022-09-12T18:24:21.364Z,14.35
2022-09-12T18:26:22.992Z,10.57
2022-09-12T18:28:24.694Z,13.23
2022-09-12T18:30:26.771Z,11.25
2022-09-12T18:32:28.271Z,11.30
2022-09-12T18:34:29.864Z,12.32
2022-09-12T18:36:32.042Z,11.07
2022-09-12T18:38:33.575Z,10.93
2022-09-12T18:40:35.668Z,10.83
2022-09-12T18:42:37.651Z,10.43
2022-09-12T18:44:39.210Z,9.73
2022-09-12T18:46:41.007Z,9.73
2022-09-12T18:48:43.274Z,8.53
2022-09-12T18:50:44.847Z,8.65
2022-09-12T18:52:46.410Z,8.75
2022-09-12T18:54:48.163Z,9.20
2022-09-12T18:56:49.722Z,9.35
2022-09-12T18:58:52.398Z,7.57
2022-09-12T19:00:54.201Z,9.02
2022-09-12T19:02:55.766Z,9.43
2022-09-12T19:04:57.519Z,9.23
2022-09-12T19:06:59.354Z,8.48
2022-09-12T19:09:06.643Z,8.73
2022-09-12T19:11:09.975Z,12.45
2022-09-12T19:13:11.710Z,14.40
2022-09-12T19:15:13.320Z,12.25
2022-09-12T19:17:14.884Z,11.45
2022-09-12T19:19:17.008Z,10.93
2022-09-12T19:21:23.075Z,10.65
2022-09-12T19:23:25.131Z,11.02
2022-09-12T19:25:26.894Z,11.10
2022-09-12T19:27:28.421Z,11.25
2022-09-12T19:29:30.068Z,10.82
2022-09-12T19:31:32.040Z,11.00
2022-09-12T19:33:33.927Z,10.57
2022-09-12T19:35:35.447Z,10.95
2022-09-12T19:37:37.175Z,10.98
2022-09-12T19:39:39.121Z,11.27
2022-09-12T19:41:40.820Z,11.50
2022-09-12T19:43:42.603Z,11.13
2022-09-12T19:45:46.759Z,11.50
2022-09-12T19:47:48.428Z,15.90
2022-09-12T19:49:50.249Z,17.38
2022-09-12T19:51:51.843Z,12.55
2022-09-12T19:53:53.423Z,12.70
2022-09-12T19:56:00.134Z,12.23
2022-09-12T19:58:01.747Z,12.38
2022-09-12T20:00:04.843Z,11.77
2022-09-12T20:02:06.650Z,12.23
2022-09-12T20:04:08.257Z,13.02
2022-09-12T20:06:10.961Z,13.50
2022-09-12T20:08:12.742Z,13.20
2022-09-12T20:10:14.796Z,11.68
2022-09-12T20:12:16.347Z,12.25
2022-09-12T20:14:18.112Z,11.57
2022-09-12T20:16:22.432Z,13.73
2022-09-12T20:18:24.408Z,12.30
2022-09-12T20:20:26.650Z,13.68
2022-09-12T20:22:28.175Z,23.42
2022-09-12T20:24:29.764Z,17.30
2022-09-12T20:26:31.695Z,18.27
2022-09-12T20:28:33.293Z,15.07
2022-09-12T20:30:34.858Z,18.35
2022-09-12T20:32:36.642Z,17.88
2022-09-12T20:34:38.147Z,15.35
2022-09-12T20:36:40.192Z,15.07
2022-09-12T20:38:42.679Z,14.98
2022-09-12T20:40:48.344Z,14.82
2022-09-12T20:42:50.140Z,14.25
2022-09-12T20:44:52.555Z,15.38
2022-09-12T20:46:54.189Z,15.43
2022-09-12T20:48:56.109Z,14.35
2022-09-12T20:51:01.118Z,15.20
2022-09-12T20:53:02.705Z,13.48
2022-09-12T20:55:04.402Z,15.13
2022-09-12T20:57:06.227Z,16.05
2022-09-12T20:59:08.032Z,15.50
2022-09-12T21:01:11.377Z,15.88
2022-09-12T21:03:13.434Z,16.50
2022-09-12T21:05:14.994Z,17.15
2022-09-12T21:07:16.623Z,15.93
2022-09-12T21:09:19.253Z,16.77
2022-09-12T21:11:21.046Z,17.30
2022-09-12T21:13:22.543Z,17.15
2022-09-12T21:15:24.666Z,17.33
2022-09-12T21:17:26.451Z,18.10
2022-09-12T21:19:28.107Z,18.27
2022-09-12T21:21:29.826Z,17.40
2022-09-12T21:23:31.455Z,17.17
2022-09-12T21:25:33.091Z,18.13
2022-09-12T21:27:34.788Z,17.65
2022-09-12T21:29:36.288Z,19.30
2022-09-12T21:31:37.836Z,17.67
2022-09-12T21:33:40.267Z,17.45
2022-09-12T21:35:41.771Z,17.00
2022-09-12T21:37:43.377Z,16.83
2022-09-12T21:39:45.164Z,16.70
2022-09-12T21:41:46.726Z,16.10
2022-09-12T21:43:48.448Z,16.40
2022-09-12T21:45:56.440Z,17.00
2022-09-12T21:47:57.943Z,17.10
2022-09-12T21:49:59.540Z,16.58
2022-09-12T21:52:01.321Z,16.80
2022-09-12T21:54:02.901Z,16.63
2022-09-12T21:56:05.778Z,16.90
2022-09-12T21:58:07.510Z,16.70
2022-09-12T22:00:14.058Z,16.63
2022-09-12T22:02:16.160Z,16.70
2022-09-12T22:04:17.994Z,15.70
2022-09-12T22:06:22.428Z,16.17
2022-09-12T22:08:24.264Z,15.43
2022-09-12T22:10:28.774Z,16.95
2022-09-12T22:12:31.219Z,17.50
2022-09-12T22:14:33.207Z,17.55
2022-09-12T22:16:34.935Z,17.03
2022-09-12T22:18:36.748Z,17.77
2022-09-12T22:20:38.367Z,17.52
2022-09-12T22:22:58.506Z,16.95
2022-09-12T22:25:00.027Z,16.85
2022-09-12T22:27:03.158Z,17.60
2022-09-12T22:29:04.913Z,16.42
2022-09-12T22:31:06.731Z,17.15
2022-09-12T22:33:08.266Z,17.65
2022-09-12T22:35:10.024Z,16.90
2022-09-12T22:37:12.312Z,16.38
2022-09-12T22:39:13.871Z,15.73
2022-09-12T22:41:15.635Z,16.48
2022-09-12T22:43:17.253Z,17.83
2022-09-12T22:45:19.198Z,16.33
2022-09-12T22:47:20.951Z,16.70
2022-09-12T22:49:22.615Z,16.63
2022-09-12T22:51:24.361Z,18.23
2022-09-12T22:53:26.194Z,18.67
2022-09-12T22:55:27.831Z,19.58
2022-09-12T22:57:29.625Z,19.52
2022-09-12T22:59:31.314Z,18.42
2022-09-12T23:01:33.774Z,18.02
2022-09-12T23:03:36.421Z,17.60
2022-09-12T23:07:40.086Z,17.52
2022-09-12T23:09:42.042Z,16.50
2022-09-12T23:11:43.795Z,18.00
2022-09-12T23:13:46.351Z,17.88
2022-09-12T23:15:47.923Z,17.60
2022-09-12T23:17:49.724Z,17.98
2022-09-12T23:19:51.982Z,17.63
2022-09-12T23:21:53.630Z,18.08
2022-09-12T23:23:56.398Z,17.48
2022-09-12T23:26:05.520Z,17.67
2022-09-12T23:28:07.112Z,18.25
2022-09-12T23:30:09.354Z,17.45
2022-09-12T23:32:10.879Z,17.33
2022-09-12T23:34:13.094Z,18.02
2022-09-12T23:36:14.795Z,17.95
2022-09-12T23:38:16.350Z,18.73
2022-09-12T23:40:18.502Z,20.23
2022-09-12T23:42:20.278Z,18.73
2022-09-12T23:44:21.790Z,18.08
2022-09-12T23:46:23.555Z,18.35
2022-09-12T23:48:25.611Z,20.75
2022-09-12T23:50:27.116Z,18.02
2022-09-12T23:52:29.472Z,18.83
2022-09-12T23:54:31.179Z,19.27
2022-09-12T23:56:32.735Z,21.52
2022-09-12T23:58:34.238Z,21.33
